createdAt,value
2022-10-05T00:00:00.124Z,92.84
2022-10-05T00:02:26.919Z,92.90
2022-10-05T00:04:56.907Z,93.71
2022-10-05T00:07:24.566Z,94.61
2022-10-05T00:09:57.174Z,94.04
2022-10-05T00:12:25.340Z,94.05
2022-10-05T00:14:55.383Z,93.97
2022-10-05T00:17:24.402Z,93.70
2022-10-05T00:19:54.705Z,92.85
2022-10-05T00:22:30.259Z,92.17
2022-10-05T00:24:59.937Z,92.27
2022-10-05T00:27:32.770Z,92.65
2022-10-05T00:30:02.688Z,92.60
2022-10-05T00:32:29.085Z,92.49
2022-10-05T00:34:57.328Z,92.59
2022-10-05T00:37:23.751Z,92.41
2022-10-05T00:39:50.215Z,92.50
2022-10-05T00:42:34.612Z,92.48
2022-10-05T00:45:07.300Z,91.99
2022-10-05T00:48:01.484Z,92.16
2022-10-05T00:50:54.007Z,91.43
2022-10-05T00:53:39.903Z,91.32
2022-10-05T00:56:09.305Z,91.92
2022-10-05T00:58:48.091Z,94.31
2022-10-05T01:01:27.148Z,94.59
2022-10-05T01:04:10.276Z,94.66
2022-10-05T01:06:55.060Z,95.43
2022-10-05T01:09:49.856Z,96.61
2022-10-05T01:13:03.554Z,96.41
2022-10-05T01:15:43.119Z,96.35
2022-10-05T01:18:25.157Z,95.97
2022-10-05T01:21:10.614Z,95.52
2022-10-05T01:23:55.385Z,95.92
2022-10-05T01:26:40.517Z,95.09
2022-10-05T01:29:25.008Z,95.25
2022-10-05T01:32:33.555Z,94.37
2022-10-05T01:35:32.802Z,93.91
2022-10-05T01:38:31.072Z,93.44
2022-10-05T01:41:39.291Z,93.87
2022-10-05T01:44:15.628Z,94.72
2022-10-05T01:46:52.165Z,94.42
2022-10-05T01:49:37.611Z,94.67
2022-10-05T01:52:33.226Z,94.22
2022-10-05T01:55:20.522Z,95.04
2022-10-05T01:58:06.364Z,95.33
2022-10-05T02:00:55.469Z,95.54
2022-10-05T02:03:30.799Z,94.11
2022-10-05T02:06:10.093Z,93.41
2022-10-05T02:08:58.838Z,93.33
2022-10-05T02:11:25.819Z,92.78
2022-10-05T02:13:59.216Z,93.71
2022-10-05T02:16:34.695Z,92.75
2022-10-05T02:19:23.301Z,92.77
2022-10-05T02:21:54.746Z,94.05
2022-10-05T02:24:29.760Z,94.51
2022-10-05T02:26:57.367Z,94.49
2022-10-05T02:29:29.753Z,93.60
2022-10-05T02:32:01.810Z,93.84
2022-10-05T02:34:37.146Z,94.16
2022-10-05T02:37:15.458Z,94.03
2022-10-05T02:40:12.372Z,92.36
2022-10-05T02:42:41.656Z,92.51
2022-10-05T02:45:27.456Z,92.21
2022-10-05T02:48:19.155Z,92.72
2022-10-05T02:51:09.482Z,93.19
2022-10-05T02:54:13.582Z,93.88
2022-10-05T02:57:02.391Z,94.54
2022-10-05T02:59:31.700Z,94.62
2022-10-05T03:02:29.332Z,93.58
2022-10-05T03:05:12.690Z,93.53
2022-10-05T03:08:06.933Z,93.29
2022-10-05T03:10:43.409Z,94.13
2022-10-05T03:13:24.386Z,94.05
2022-10-05T03:16:20.352Z,94.11
2022-10-05T03:19:11.415Z,93.10
2022-10-05T03:21:56.597Z,93.94
2022-10-05T03:24:42.791Z,95.45
2022-10-05T03:27:22.877Z,95.38
2022-10-05T03:30:19.666Z,95.78
2022-10-05T03:32:55.145Z,95.62
2022-10-05T03:35:33.117Z,96.38
2022-10-05T03:37:59.484Z,96.14
2022-10-05T03:40:32.628Z,96.89
2022-10-05T03:43:37.457Z,98.37
2022-10-05T03:46:13.720Z,98.75
2022-10-05T03:48:47.417Z,98.74
2022-10-05T03:51:28.414Z,97.55
2022-10-05T03:53:59.836Z,96.90
2022-10-05T03:56:45.938Z,95.22
2022-10-05T03:59:22.784Z,94.91
2022-10-05T04:01:57.446Z,94.88
2022-10-05T04:04:28.169Z,96.37
2022-10-05T04:06:56.182Z,96.51
2022-10-05T04:09:32.976Z,95.87
2022-10-05T04:12:32.939Z,96.13
2022-10-05T04:15:02.928Z,96.17
2022-10-05T04:18:05.299Z,96.62
2022-10-05T04:20:49.202Z,98.24
2022-10-05T04:23:15.521Z,96.99
2022-10-05T04:26:01.141Z,96.03
2022-10-05T04:29:01.655Z,96.51
2022-10-05T04:31:40.219Z,95.50
2022-10-05T04:34:27.280Z,95.79
2022-10-05T04:37:03.365Z,95.21
2022-10-05T04:39:50.205Z,93.89
2022-10-05T04:42:44.412Z,94.15
2022-10-05T04:45:42.586Z,93.96
2022-10-05T04:48:20.925Z,94.66
2022-10-05T04:51:05.610Z,94.36
2022-10-05T04:53:42.243Z,94.12
2022-10-05T04:56:20.293Z,94.47
2022-10-05T04:59:15.276Z,94.04
2022-10-05T05:01:47.732Z,93.92
2022-10-05T05:04:35.716Z,94.26
2022-10-05T05:07:27.135Z,94.73
2022-10-05T05:10:12.434Z,94.69
2022-10-05T05:13:02.209Z,93.09
2022-10-05T05:15:37.523Z,93.16
2022-10-05T05:18:46.184Z,93.76
2022-10-05T05:21:21.555Z,94.73
2022-10-05T05:23:57.606Z,94.25
2022-10-05T05:26:38.791Z,94.10
2022-10-05T05:29:08.247Z,92.83
2022-10-05T05:31:55.616Z,93.53
2022-10-05T05:34:38.685Z,94.93
2022-10-05T05:37:13.751Z,94.51
2022-10-05T05:40:03.477Z,94.55
2022-10-05T05:42:52.210Z,93.21
2022-10-05T05:45:41.836Z,94.92
2022-10-05T05:48:35.798Z,93.64
2022-10-05T05:51:21.236Z,93.08
2022-10-05T05:53:52.395Z,92.34
2022-10-05T05:56:34.584Z,91.02
2022-10-05T05:59:27.031Z,89.15
2022-10-05T06:02:05.540Z,88.47
2022-10-05T06:04:38.453Z,87.19
2022-10-05T06:07:06.115Z,86.50
2022-10-05T06:09:39.276Z,87.85
2022-10-05T06:12:28.152Z,86.74
2022-10-05T06:15:00.328Z,83.75
2022-10-05T06:17:45.247Z,81.45
2022-10-05T06:20:25.509Z,81.21
2022-10-05T06:22:52.571Z,81.40
2022-10-05T06:25:38.473Z,81.31
2022-10-05T06:28:13.090Z,82.25
2022-10-05T06:31:03.715Z,82.81
2022-10-05T06:33:45.263Z,84.23
2022-10-05T06:36:49.001Z,84.78
2022-10-05T06:39:36.460Z,85.36
2022-10-05T06:42:31.043Z,85.97
2022-10-05T06:45:14.991Z,85.95
2022-10-05T06:47:54.824Z,86.35
2022-10-05T06:50:42.237Z,86.07
2022-10-05T06:53:14.618Z,86.51
2022-10-05T06:55:52.102Z,86.13
2022-10-05T06:58:30.842Z,87.16
2022-10-05T07:01:11.199Z,86.72
2022-10-05T07:04:09.777Z,86.54
2022-10-05T07:06:57.042Z,88.90
2022-10-05T07:09:43.087Z,88.03
2022-10-05T07:12:18.168Z,87.35
2022-10-05T07:14:50.658Z,89.87
2022-10-05T07:17:24.608Z,90.22
2022-10-05T07:20:04.313Z,88.72
2022-10-05T07:22:55.229Z,87.87
2022-10-05T07:25:28.825Z,87.05
2022-10-05T07:28:04.645Z,86.18
2022-10-05T07:30:41.279Z,84.63
2022-10-05T07:33:15.926Z,82.95
2022-10-05T07:36:20.061Z,81.48
2022-10-05T07:38:59.603Z,79.28
2022-10-05T07:41:47.717Z,78.46
2022-10-05T07:44:37.395Z,75.19
2022-10-05T07:47:42.185Z,71.27
2022-10-05T07:50:23.905Z,68.79
2022-10-05T07:52:56.460Z,73.52
2022-10-05T07:55:26.621Z,72.84
2022-10-05T07:58:00.246Z,69.53
2022-10-05T08:00:45.468Z,68.38
2022-10-05T08:03:23.660Z,68.63
2022-10-05T08:05:50.296Z,69.06
2022-10-05T08:08:47.935Z,67.69
2022-10-05T08:11:24.192Z,68.91
2022-10-05T08:14:16.709Z,64.28
2022-10-05T08:16:46.574Z,66.14
2022-10-05T08:19:25.939Z,61.76
2022-10-05T08:21:58.321Z,62.19
2022-10-05T08:24:51.624Z,65.25
2022-10-05T08:27:39.896Z,69.29
2022-10-05T08:30:10.893Z,67.74
2022-10-05T08:33:01.357Z,64.91
2022-10-05T08:35:44.256Z,63.92
2022-10-05T08:38:16.624Z,64.56
2022-10-05T08:41:07.958Z,64.19
2022-10-05T08:43:49.626Z,65.79
2022-10-05T08:46:33.508Z,63.30
2022-10-05T08:49:35.055Z,63.88
2022-10-05T08:52:38.531Z,65.59
2022-10-05T08:55:22.910Z,64.15
2022-10-05T08:58:17.255Z,64.91
2022-10-05T09:01:27.029Z,66.81
2022-10-05T09:04:15.067Z,66.28
2022-10-05T09:07:06.110Z,69.36
2022-10-05T09:10:06.375Z,68.69
2022-10-05T09:12:59.324Z,67.49
2022-10-05T09:16:07.717Z,64.32
2022-10-05T09:18:49.840Z,67.18
2022-10-05T09:21:41.882Z,69.89
2022-10-05T09:24:14.119Z,68.92
2022-10-05T09:26:40.630Z,66.98
2022-10-05T09:29:25.779Z,66.27
2022-10-05T09:32:16.499Z,63.82
2022-10-05T09:34:53.626Z,64.16
2022-10-05T09:37:35.127Z,67.08
2022-10-05T09:40:13.578Z,65.42
2022-10-05T09:43:04.415Z,62.74
2022-10-05T09:45:40.074Z,61.04
2022-10-05T09:48:27.201Z,62.29
2022-10-05T09:51:01.364Z,58.87
2022-10-05T09:53:49.091Z,55.93
2022-10-05T09:56:52.895Z,57.76
2022-10-05T09:59:36.776Z,62.85
2022-10-05T10:02:09.735Z,60.15
2022-10-05T10:05:04.083Z,57.13
2022-10-05T10:07:50.179Z,56.27
2022-10-05T10:10:43.859Z,55.80
2022-10-05T10:13:37.931Z,56.17
2022-10-05T10:16:30.500Z,52.95
2022-10-05T10:19:12.617Z,48.49
2022-10-05T10:22:10.807Z,46.72
2022-10-05T10:24:58.405Z,43.84
2022-10-05T10:27:42.938Z,46.08
2022-10-05T10:30:28.430Z,48.13
2022-10-05T10:33:04.254Z,51.35
2022-10-05T10:35:37.768Z,51.81
2022-10-05T10:38:23.644Z,53.15
2022-10-05T10:40:56.294Z,54.82
2022-10-05T10:43:58.687Z,52.65
2022-10-05T10:46:53.150Z,52.78
2022-10-05T10:49:53.243Z,51.70
2022-10-05T10:52:31.703Z,50.02
2022-10-05T10:55:26.138Z,46.13
2022-10-05T11:01:11.297Z,40.44
2022-10-05T11:03:49.790Z,41.84
2022-10-05T11:06:33.504Z,40.86
2022-10-05T11:09:12.547Z,43.97
2022-10-05T11:11:58.484Z,46.27
2022-10-05T11:14:42.954Z,42.17
2022-10-05T11:17:25.262Z,44.24
2022-10-05T11:20:04.004Z,47.55
2022-10-05T11:22:31.384Z,49.43
2022-10-05T11:25:09.962Z,50.84
2022-10-05T11:28:20.722Z,45.76
2022-10-05T11:30:51.243Z,44.94
2022-10-05T11:33:54.932Z,44.65
2022-10-05T11:36:46.085Z,41.61
2022-10-05T11:39:55.489Z,46.48
2022-10-05T11:42:27.862Z,44.84
2022-10-05T11:45:23.483Z,49.05
2022-10-05T11:47:49.807Z,48.02
2022-10-05T11:50:19.206Z,50.94
2022-10-05T11:53:07.202Z,50.60
2022-10-05T11:56:01.335Z,49.12
2022-10-05T11:58:50.267Z,48.00
2022-10-05T12:01:43.803Z,43.75
2022-10-05T12:05:07.293Z,50.59
2022-10-05T12:07:58.636Z,48.31
2022-10-05T12:10:42.472Z,46.01
2022-10-05T12:13:29.483Z,52.34
2022-10-05T12:16:13.150Z,50.58
2022-10-05T12:18:45.607Z,53.39
2022-10-05T12:21:43.842Z,51.59
2022-10-05T12:24:27.154Z,49.35
2022-10-05T12:27:07.410Z,46.68
2022-10-05T12:29:42.782Z,43.64
2022-10-05T12:32:21.466Z,45.22
2022-10-05T12:35:01.494Z,47.62
2022-10-05T12:37:41.179Z,42.75
2022-10-05T12:40:25.049Z,42.79
2022-10-05T12:43:12.413Z,44.21
2022-10-05T12:46:02.667Z,44.46
2022-10-05T12:48:49.186Z,50.71
2022-10-05T12:51:27.871Z,43.79
2022-10-05T12:54:13.519Z,47.49
2022-10-05T12:56:52.047Z,48.51
2022-10-05T12:59:52.688Z,48.03
2022-10-05T13:02:31.895Z,49.37
2022-10-05T13:05:03.987Z,49.77
2022-10-05T13:07:52.182Z,45.56
2022-10-05T13:10:39.287Z,39.55
2022-10-05T13:13:21.693Z,45.59
2022-10-05T13:16:00.103Z,45.22
2022-10-05T13:18:26.511Z,43.45
2022-10-05T13:21:03.941Z,38.24
2022-10-05T13:24:01.415Z,35.04
2022-10-05T13:26:40.887Z,42.84
2022-10-05T13:29:28.908Z,37.07
2022-10-05T13:32:03.901Z,33.15
2022-10-05T13:34:43.546Z,30.58
2022-10-05T13:37:31.950Z,31.35
2022-10-05T13:40:17.824Z,30.55
2022-10-05T13:42:55.480Z,36.23
2022-10-05T13:45:24.869Z,31.00
2022-10-05T13:48:23.181Z,36.50
2022-10-05T13:51:19.032Z,35.21
2022-10-05T13:53:53.160Z,41.84
2022-10-05T13:56:29.172Z,40.94
2022-10-05T13:59:14.390Z,37.97
2022-10-05T14:01:45.888Z,37.07
2022-10-05T14:04:20.978Z,41.74
2022-10-05T14:06:48.873Z,41.09
2022-10-05T14:09:29.032Z,42.20
2022-10-05T14:12:12.183Z,45.35
2022-10-05T14:14:58.512Z,45.94
2022-10-05T14:17:43.330Z,44.85
2022-10-05T14:20:28.171Z,47.74
2022-10-05T14:23:19.750Z,49.23
2022-10-05T14:25:54.058Z,51.69
2022-10-05T14:28:31.460Z,52.26
2022-10-05T14:31:03.848Z,52.40
2022-10-05T14:33:33.537Z,52.69
2022-10-05T14:36:00.062Z,52.69
2022-10-05T14:38:29.713Z,53.27
2022-10-05T14:41:08.039Z,53.10
2022-10-05T14:43:35.258Z,52.91
2022-10-05T14:46:23.245Z,53.43
2022-10-05T14:49:13.415Z,54.13
2022-10-05T14:51:42.106Z,55.97
2022-10-05T14:54:35.759Z,56.70
2022-10-05T14:57:22.434Z,58.95
2022-10-05T15:00:07.310Z,57.45
2022-10-05T15:03:08.726Z,57.31
2022-10-05T15:05:55.646Z,58.14
2022-10-05T15:08:31.232Z,57.81
2022-10-05T15:11:07.583Z,58.93
2022-10-05T15:13:43.604Z,59.13
2022-10-05T15:16:24.878Z,58.23
2022-10-05T15:19:03.318Z,57.51
2022-10-05T15:21:42.352Z,55.36
2022-10-05T15:24:22.313Z,55.85
2022-10-05T15:26:56.265Z,56.99
2022-10-05T15:29:51.215Z,55.85
2022-10-05T15:32:24.748Z,56.33
2022-10-05T15:35:20.629Z,55.83
2022-10-05T15:37:57.723Z,55.72
2022-10-05T15:40:37.264Z,55.68
2022-10-05T15:43:11.557Z,56.48
2022-10-05T15:45:51.711Z,57.07
2022-10-05T15:48:29.035Z,57.35
2022-10-05T15:51:01.672Z,58.49
2022-10-05T15:53:43.382Z,59.54
2022-10-05T15:56:27.760Z,61.15
2022-10-05T15:58:59.851Z,62.22
2022-10-05T16:01:32.321Z,63.11
2022-10-05T16:04:52.561Z,64.31
2022-10-05T16:07:50.995Z,64.56
2022-10-05T16:10:21.461Z,65.45
2022-10-05T16:13:04.318Z,66.16
2022-10-05T16:15:43.030Z,67.81
2022-10-05T16:18:34.057Z,68.10
2022-10-05T16:21:29.307Z,68.15
2022-10-05T16:24:33.619Z,68.26
2022-10-05T16:27:10.308Z,69.67
2022-10-05T16:29:50.546Z,69.91
2022-10-05T16:32:30.474Z,70.32
2022-10-05T16:35:02.634Z,70.49
2022-10-05T16:37:46.099Z,71.10
2022-10-05T16:40:38.257Z,71.57
2022-10-05T16:43:19.672Z,72.35
2022-10-05T16:46:12.338Z,72.62
2022-10-05T16:49:21.115Z,73.72
2022-10-05T16:52:01.644Z,74.06
2022-10-05T16:54:38.262Z,75.23
2022-10-05T16:57:20.041Z,74.95
2022-10-05T16:59:55.359Z,74.79
2022-10-05T17:02:34.011Z,74.88
2022-10-05T17:05:12.304Z,74.33
2022-10-05T17:07:58.293Z,73.66
2022-10-05T17:10:40.191Z,73.69
2022-10-05T17:13:37.299Z,72.91
2022-10-05T17:16:25.170Z,70.82
2022-10-05T17:19:19.150Z,69.92
2022-10-05T17:21:55.456Z,69.30
2022-10-05T17:24:32.669Z,69.19
2022-10-05T17:27:17.776Z,68.77
2022-10-05T17:29:47.610Z,69.06
2022-10-05T17:32:16.732Z,68.59
2022-10-05T17:35:01.207Z,68.19
2022-10-05T17:37:35.519Z,68.30
2022-10-05T17:40:29.745Z,68.29
2022-10-05T17:43:01.202Z,67.85
2022-10-05T17:45:33.550Z,67.32
2022-10-05T17:48:10.081Z,67.31
2022-10-05T17:51:13.030Z,67.10
2022-10-05T17:54:01.376Z,67.19
2022-10-05T17:56:28.347Z,67.00
2022-10-05T17:58:54.923Z,66.20
2022-10-05T18:01:32.496Z,66.45
2022-10-05T18:04:13.869Z,66.10
2022-10-05T18:07:01.523Z,66.71
2022-10-05T18:09:33.018Z,66.80
2022-10-05T18:12:17.870Z,66.80
2022-10-05T18:14:56.366Z,66.70
2022-10-05T18:17:45.283Z,67.02
2022-10-05T18:20:23.779Z,67.60
2022-10-05T18:22:53.330Z,67.45
2022-10-05T18:25:26.125Z,67.98
2022-10-05T18:28:19.211Z,67.74
2022-10-05T18:31:16.395Z,67.31
2022-10-05T18:33:55.235Z,67.90
2022-10-05T18:36:44.407Z,67.70
2022-10-05T18:39:38.227Z,68.00
2022-10-05T18:42:20.854Z,67.90
2022-10-05T18:44:55.566Z,68.54
2022-10-05T18:47:37.209Z,68.28
2022-10-05T18:50:46.409Z,68.40
2022-10-05T18:53:15.797Z,68.48
2022-10-05T18:55:49.219Z,68.69
2022-10-05T18:58:26.446Z,68.76
2022-10-05T19:01:26.775Z,69.03
2022-10-05T19:04:08.491Z,68.70
2022-10-05T19:07:01.843Z,69.03
2022-10-05T19:10:10.977Z,69.31
2022-10-05T19:13:07.215Z,70.21
2022-10-05T19:15:59.054Z,70.17
2022-10-05T19:18:42.060Z,70.13
2022-10-05T19:21:34.399Z,69.90
2022-10-05T19:24:33.716Z,70.88
2022-10-05T19:27:37.490Z,71.09
2022-10-05T19:30:22.989Z,71.31
2022-10-05T19:33:23.326Z,71.65
2022-10-05T19:36:13.419Z,71.77
2022-10-05T19:39:05.812Z,71.82
2022-10-05T19:41:41.029Z,71.89
2022-10-05T19:44:29.399Z,72.07
2022-10-05T19:47:01.113Z,72.17
2022-10-05T19:49:51.817Z,72.72
2022-10-05T19:52:28.410Z,73.20
2022-10-05T19:55:26.287Z,73.42
2022-10-05T19:57:55.245Z,74.14
2022-10-05T20:00:25.527Z,74.37
2022-10-05T20:03:09.080Z,74.91
2022-10-05T20:05:35.655Z,74.40
2022-10-05T20:08:03.485Z,74.85
2022-10-05T20:10:30.799Z,75.12
2022-10-05T20:13:00.661Z,75.45
2022-10-05T20:15:47.307Z,75.32
2022-10-05T20:19:02.912Z,75.70
2022-10-05T20:21:39.447Z,75.47
2022-10-05T20:24:17.486Z,75.66
2022-10-05T20:27:03.372Z,75.59
2022-10-05T20:29:37.610Z,75.65
2022-10-05T20:32:12.818Z,75.90
2022-10-05T20:34:41.618Z,76.14
2022-10-05T20:37:12.966Z,76.66
2022-10-05T20:39:40.395Z,76.27
2022-10-05T20:42:08.243Z,76.57
2022-10-05T20:44:37.007Z,76.35
2022-10-05T20:47:04.612Z,75.95
2022-10-05T20:49:31.816Z,76.16
2022-10-05T20:51:59.042Z,76.27
2022-10-05T20:54:26.818Z,76.07
2022-10-05T20:56:55.653Z,75.78
2022-10-05T20:59:23.563Z,76.39
2022-10-05T21:01:50.544Z,76.29
2022-10-05T21:04:30.203Z,75.90
2022-10-05T21:07:02.647Z,75.49
2022-10-05T21:09:29.977Z,75.51
2022-10-05T21:11:56.362Z,75.35
2022-10-05T21:14:23.850Z,75.54
2022-10-05T21:16:51.243Z,75.57
2022-10-05T21:19:17.650Z,76.01
2022-10-05T21:21:45.660Z,76.49
2022-10-05T21:24:14.263Z,76.35
2022-10-05T21:26:41.995Z,77.01
2022-10-05T21:29:12.531Z,77.40
2022-10-05T21:31:39.748Z,77.33
2022-10-05T21:34:06.397Z,77.25
2022-10-05T21:36:33.084Z,77.77
2022-10-05T21:38:59.657Z,78.58
2022-10-05T21:41:26.532Z,78.34
2022-10-05T21:43:53.221Z,79.15
2022-10-05T21:46:22.824Z,78.41
2022-10-05T21:48:49.799Z,77.81
2022-10-05T21:51:18.777Z,77.73
2022-10-05T21:53:56.585Z,77.12
2022-10-05T21:56:27.973Z,76.62
2022-10-05T21:58:54.567Z,76.80
2022-10-05T22:01:22.774Z,76.87
2022-10-05T22:03:49.786Z,76.96
2022-10-05T22:06:16.421Z,77.29
2022-10-05T22:08:43.147Z,76.88
2022-10-05T22:11:15.345Z,76.10
2022-10-05T22:13:45.466Z,75.91
2022-10-05T22:16:12.981Z,75.64
2022-10-05T22:18:40.009Z,75.68
2022-10-05T22:21:07.937Z,75.17
2022-10-05T22:23:35.851Z,74.62
2022-10-05T22:26:03.912Z,74.90
2022-10-05T22:28:32.606Z,75.03
2022-10-05T22:31:02.975Z,74.26
2022-10-05T22:33:29.639Z,74.31
2022-10-05T22:35:58.820Z,74.60
2022-10-05T22:38:25.768Z,74.93
2022-10-05T22:40:52.337Z,74.75
2022-10-05T22:43:18.719Z,74.99
2022-10-05T22:45:45.188Z,74.24
2022-10-05T22:48:11.884Z,73.87
2022-10-05T22:50:38.232Z,73.92
2022-10-05T22:53:04.646Z,74.23
2022-10-05T22:55:31.092Z,74.56
2022-10-05T22:57:57.443Z,73.95
2022-10-05T23:00:35.147Z,75.00
2022-10-05T23:03:10.160Z,75.69
2022-10-05T23:05:36.517Z,75.86
2022-10-05T23:08:02.963Z,75.97
2022-10-05T23:10:29.481Z,76.87
2022-10-05T23:13:00.558Z,77.12
2022-10-05T23:15:27.471Z,76.38
2022-10-05T23:17:55.945Z,75.94
2022-10-05T23:20:24.504Z,76.79
2022-10-05T23:22:50.882Z,76.99
2022-10-05T23:25:17.801Z,77.45
2022-10-05T23:27:44.231Z,77.14
2022-10-05T23:30:11.795Z,76.47
2022-10-05T23:32:40.543Z,76.51
2022-10-05T23:35:09.261Z,76.73
2022-10-05T23:37:43.739Z,76.76
2022-10-05T23:40:13.155Z,77.36
2022-10-05T23:42:40.593Z,77.66
2022-10-05T23:45:08.734Z,78.69
2022-10-05T23:47:35.289Z,79.37
2022-10-05T23:50:02.168Z,79.62
2022-10-05T23:52:28.637Z,80.04
2022-10-05T23:54:55.063Z,79.97
2022-10-05T23:57:21.537Z,79.71
2022-10-05T23:59:50.186Z,79.31
